sensor_id;sensor_type;location;lat;lon;timestamp;P1;durP1;ratioP1;P2;durP2;ratioP2
51925;SDS011;37952;51.938;15.480;2023-06-04T00:04:31;0.90;;;0.70;;
51925;SDS011;37952;51.938;15.480;2023-06-04T00:07:33;0.50;;;0.50;;
51925;SDS011;37952;51.938;15.480;2023-06-04T00:10:36;0.60;;;0.60;;
51925;SDS011;37952;51.938;15.480;2023-06-04T00:13:42;1.50;;;0.50;;
51925;SDS011;37952;51.938;15.480;2023-06-04T00:23:21;1.00;;;0.50;;
51925;SDS011;37952;51.938;15.480;2023-06-04T00:26:24;1.00;;;0.70;;
51925;SDS011;37952;51.938;15.480;2023-06-04T00:29:29;1.60;;;0.80;;
51925;SDS011;37952;51.938;15.480;2023-06-04T00:32:31;1.30;;;0.90;;
51925;SDS011;37952;51.938;15.480;2023-06-04T00:35:34;1.40;;;0.70;;
51925;SDS011;37952;51.938;15.480;2023-06-04T00:38:37;1.40;;;0.80;;
51925;SDS011;37952;51.938;15.480;2023-06-04T00:41:40;0.70;;;0.70;;
51925;SDS011;37952;51.938;15.480;2023-06-04T00:44:42;1.70;;;0.90;;
51925;SDS011;37952;51.938;15.480;2023-06-04T00:47:47;1.00;;;0.90;;
51925;SDS011;37952;51.938;15.480;2023-06-04T00:54:42;2.70;;;1.00;;
51925;SDS011;37952;51.938;15.480;2023-06-04T01:01:43;1.90;;;1.10;;
51925;SDS011;37952;51.938;15.480;2023-06-04T01:04:58;1.10;;;1.00;;
51925;SDS011;37952;51.938;15.480;2023-06-04T01:08:11;1.60;;;1.30;;
51925;SDS011;37952;51.938;15.480;2023-06-04T01:14:50;2.60;;;1.20;;
51925;SDS011;37952;51.938;15.480;2023-06-04T01:17:54;1.40;;;1.20;;
51925;SDS011;37952;51.938;15.480;2023-06-04T01:21:06;1.10;;;1.00;;
51925;SDS011;37952;51.938;15.480;2023-06-04T01:24:12;2.00;;;1.20;;
51925;SDS011;37952;51.938;15.480;2023-06-04T01:31:06;2.40;;;1.00;;
51925;SDS011;37952;51.938;15.480;2023-06-04T01:34:11;1.10;;;0.90;;
51925;SDS011;37952;51.938;15.480;2023-06-04T01:37:30;1.90;;;1.30;;
51925;SDS011;37952;51.938;15.480;2023-06-04T01:40:33;1.00;;;1.00;;
51925;SDS011;37952;51.938;15.480;2023-06-04T01:43:35;1.10;;;1.10;;
51925;SDS011;37952;51.938;15.480;2023-06-04T01:46:38;1.60;;;1.30;;
51925;SDS011;37952;51.938;15.480;2023-06-04T01:49:41;1.30;;;1.20;;
51925;SDS011;37952;51.938;15.480;2023-06-04T01:52:44;3.10;;;1.30;;
51925;SDS011;37952;51.938;15.480;2023-06-04T01:55:47;1.20;;;1.10;;
51925;SDS011;37952;51.938;15.480;2023-06-04T01:58:51;2.90;;;1.10;;
51925;SDS011;37952;51.938;15.480;2023-06-04T02:01:54;1.20;;;1.10;;
51925;SDS011;37952;51.938;15.480;2023-06-04T02:04:57;1.50;;;1.40;;
51925;SDS011;37952;51.938;15.480;2023-06-04T02:08:00;5.20;;;1.40;;
51925;SDS011;37952;51.938;15.480;2023-06-04T02:11:04;1.60;;;1.50;;
51925;SDS011;37952;51.938;15.480;2023-06-04T02:17:27;1.30;;;1.20;;
51925;SDS011;37952;51.938;15.480;2023-06-04T02:20:30;1.70;;;1.40;;
51925;SDS011;37952;51.938;15.480;2023-06-04T02:23:32;1.30;;;1.20;;
51925;SDS011;37952;51.938;15.480;2023-06-04T02:26:36;2.20;;;1.40;;
51925;SDS011;37952;51.938;15.480;2023-06-04T02:32:49;2.20;;;1.50;;
51925;SDS011;37952;51.938;15.480;2023-06-04T02:36:03;1.90;;;1.10;;
51925;SDS011;37952;51.938;15.480;2023-06-04T02:39:06;2.40;;;1.30;;
51925;SDS011;37952;51.938;15.480;2023-06-04T02:42:09;1.80;;;1.40;;
51925;SDS011;37952;51.938;15.480;2023-06-04T02:45:11;1.60;;;1.50;;
51925;SDS011;37952;51.938;15.480;2023-06-04T02:48:14;2.00;;;1.40;;
51925;SDS011;37952;51.938;15.480;2023-06-04T02:51:17;2.20;;;1.40;;
51925;SDS011;37952;51.938;15.480;2023-06-04T02:54:20;1.80;;;1.30;;
51925;SDS011;37952;51.938;15.480;2023-06-04T02:57:23;3.60;;;1.20;;
51925;SDS011;37952;51.938;15.480;2023-06-04T03:00:25;1.50;;;1.10;;
51925;SDS011;37952;51.938;15.480;2023-06-04T03:03:43;1.50;;;1.20;;
51925;SDS011;37952;51.938;15.480;2023-06-04T03:06:48;1.40;;;1.30;;
51925;SDS011;37952;51.938;15.480;2023-06-04T03:09:55;2.00;;;1.30;;
51925;SDS011;37952;51.938;15.480;2023-06-04T03:13:03;2.00;;;1.50;;
51925;SDS011;37952;51.938;15.480;2023-06-04T03:16:06;1.60;;;1.40;;
51925;SDS011;37952;51.938;15.480;2023-06-04T03:19:12;1.30;;;1.20;;
51925;SDS011;37952;51.938;15.480;2023-06-04T03:22:15;1.60;;;1.20;;
51925;SDS011;37952;51.938;15.480;2023-06-04T03:25:18;2.80;;;1.30;;
51925;SDS011;37952;51.938;15.480;2023-06-04T03:28:21;2.60;;;1.40;;
51925;SDS011;37952;51.938;15.480;2023-06-04T03:31:23;2.00;;;1.70;;
51925;SDS011;37952;51.938;15.480;2023-06-04T03:38:07;3.70;;;1.50;;
51925;SDS011;37952;51.938;15.480;2023-06-04T03:41:10;3.20;;;1.80;;
51925;SDS011;37952;51.938;15.480;2023-06-04T03:44:13;2.20;;;1.90;;
51925;SDS011;37952;51.938;15.480;2023-06-04T03:47:17;1.80;;;1.70;;
51925;SDS011;37952;51.938;15.480;2023-06-04T03:50:20;2.00;;;1.70;;
51925;SDS011;37952;51.938;15.480;2023-06-04T03:53:23;3.50;;;1.90;;
51925;SDS011;37952;51.938;15.480;2023-06-04T03:56:26;3.70;;;2.10;;
51925;SDS011;37952;51.938;15.480;2023-06-04T03:59:29;3.70;;;1.80;;
51925;SDS011;37952;51.938;15.480;2023-06-04T04:02:32;2.30;;;2.10;;
51925;SDS011;37952;51.938;15.480;2023-06-04T04:05:35;1.90;;;1.70;;
51925;SDS011;37952;51.938;15.480;2023-06-04T04:08:38;5.30;;;1.90;;
51925;SDS011;37952;51.938;15.480;2023-06-04T04:11:44;3.50;;;1.80;;
51925;SDS011;37952;51.938;15.480;2023-06-04T04:14:52;3.30;;;1.80;;
51925;SDS011;37952;51.938;15.480;2023-06-04T04:17:54;2.30;;;1.70;;
51925;SDS011;37952;51.938;15.480;2023-06-04T04:20:57;3.60;;;1.90;;
51925;SDS011;37952;51.938;15.480;2023-06-04T04:24:00;2.40;;;2.10;;
51925;SDS011;37952;51.938;15.480;2023-06-04T04:27:04;5.60;;;2.30;;
51925;SDS011;37952;51.938;15.480;2023-06-04T04:30:07;2.90;;;1.70;;
51925;SDS011;37952;51.938;15.480;2023-06-04T04:33:12;2.50;;;2.00;;
51925;SDS011;37952;51.938;15.480;2023-06-04T04:36:18;3.00;;;2.10;;
51925;SDS011;37952;51.938;15.480;2023-06-04T04:39:24;2.50;;;1.80;;
51925;SDS011;37952;51.938;15.480;2023-06-04T04:50:11;1.60;;;1.50;;
51925;SDS011;37952;51.938;15.480;2023-06-04T04:53:13;1.50;;;1.30;;
51925;SDS011;37952;51.938;15.480;2023-06-04T04:56:16;1.20;;;1.10;;
51925;SDS011;37952;51.938;15.480;2023-06-04T04:59:19;3.30;;;1.30;;
51925;SDS011;37952;51.938;15.480;2023-06-04T05:09:24;3.70;;;1.80;;
51925;SDS011;37952;51.938;15.480;2023-06-04T05:12:29;3.80;;;1.40;;
51925;SDS011;37952;51.938;15.480;2023-06-04T05:15:40;1.70;;;1.60;;
51925;SDS011;37952;51.938;15.480;2023-06-04T05:18:44;2.30;;;1.50;;
51925;SDS011;37952;51.938;15.480;2023-06-04T05:21:47;1.70;;;1.20;;
51925;SDS011;37952;51.938;15.480;2023-06-04T05:24:51;3.50;;;1.40;;
51925;SDS011;37952;51.938;15.480;2023-06-04T05:27:55;4.20;;;1.20;;
51925;SDS011;37952;51.938;15.480;2023-06-04T05:30:59;2.40;;;1.50;;
51925;SDS011;37952;51.938;15.480;2023-06-04T05:37:52;3.00;;;1.60;;
51925;SDS011;37952;51.938;15.480;2023-06-04T05:40:56;7.20;;;1.60;;
51925;SDS011;37952;51.938;15.480;2023-06-04T05:47:05;1.60;;;1.50;;
51925;SDS011;37952;51.938;15.480;2023-06-04T05:50:08;2.20;;;1.60;;
51925;SDS011;37952;51.938;15.480;2023-06-04T05:53:12;3.00;;;1.40;;
51925;SDS011;37952;51.938;15.480;2023-06-04T05:56:22;2.10;;;1.60;;
51925;SDS011;37952;51.938;15.480;2023-06-04T05:59:25;1.70;;;1.60;;
51925;SDS011;37952;51.938;15.480;2023-06-04T06:02:27;1.40;;;1.30;;
51925;SDS011;37952;51.938;15.480;2023-06-04T06:05:30;2.30;;;1.60;;
51925;SDS011;37952;51.938;15.480;2023-06-04T06:08:33;2.40;;;1.70;;
51925;SDS011;37952;51.938;15.480;2023-06-04T06:11:36;2.10;;;1.80;;
51925;SDS011;37952;51.938;15.480;2023-06-04T06:14:39;2.60;;;1.30;;
51925;SDS011;37952;51.938;15.480;2023-06-04T06:17:42;1.60;;;1.50;;
51925;SDS011;37952;51.938;15.480;2023-06-04T06:20:45;2.50;;;1.40;;
51925;SDS011;37952;51.938;15.480;2023-06-04T06:23:48;1.40;;;1.30;;
51925;SDS011;37952;51.938;15.480;2023-06-04T06:34:43;0.80;;;0.80;;
51925;SDS011;37952;51.938;15.480;2023-06-04T06:37:46;1.50;;;1.10;;
51925;SDS011;37952;51.938;15.480;2023-06-04T06:40:50;1.20;;;1.10;;
51925;SDS011;37952;51.938;15.480;2023-06-04T06:47:43;3.80;;;1.00;;
51925;SDS011;37952;51.938;15.480;2023-06-04T06:54:28;1.10;;;1.10;;
51925;SDS011;37952;51.938;15.480;2023-06-04T06:57:31;1.90;;;1.10;;
51925;SDS011;37952;51.938;15.480;2023-06-04T07:04:10;0.90;;;0.70;;
51925;SDS011;37952;51.938;15.480;2023-06-04T07:07:19;1.00;;;1.00;;
51925;SDS011;37952;51.938;15.480;2023-06-04T07:10:22;0.80;;;0.80;;
51925;SDS011;37952;51.938;15.480;2023-06-04T07:13:26;0.70;;;0.70;;
51925;SDS011;37952;51.938;15.480;2023-06-04T07:16:29;1.10;;;0.70;;
51925;SDS011;37952;51.938;15.480;2023-06-04T07:19:32;3.60;;;0.80;;
51925;SDS011;37952;51.938;15.480;2023-06-04T07:22:39;1.40;;;0.90;;
51925;SDS011;37952;51.938;15.480;2023-06-04T07:25:42;0.80;;;0.60;;
51925;SDS011;37952;51.938;15.480;2023-06-04T07:28:45;1.20;;;0.60;;
51925;SDS011;37952;51.938;15.480;2023-06-04T07:31:49;1.30;;;0.60;;
51925;SDS011;37952;51.938;15.480;2023-06-04T07:34:52;0.80;;;0.70;;
51925;SDS011;37952;51.938;15.480;2023-06-04T07:37:54;2.60;;;1.10;;
51925;SDS011;37952;51.938;15.480;2023-06-04T07:40:57;0.80;;;0.80;;
51925;SDS011;37952;51.938;15.480;2023-06-04T07:44:00;1.10;;;0.90;;
51925;SDS011;37952;51.938;15.480;2023-06-04T07:47:02;2.40;;;0.80;;
51925;SDS011;37952;51.938;15.480;2023-06-04T07:50:05;1.50;;;1.10;;
51925;SDS011;37952;51.938;15.480;2023-06-04T07:56:22;3.40;;;0.90;;
51925;SDS011;37952;51.938;15.480;2023-06-04T08:03:19;4.70;;;0.90;;
51925;SDS011;37952;51.938;15.480;2023-06-04T08:06:27;1.50;;;1.00;;
51925;SDS011;37952;51.938;15.480;2023-06-04T08:09:31;1.00;;;0.90;;
51925;SDS011;37952;51.938;15.480;2023-06-04T08:12:33;1.20;;;1.10;;
51925;SDS011;37952;51.938;15.480;2023-06-04T08:19:12;1.00;;;0.90;;
51925;SDS011;37952;51.938;15.480;2023-06-04T08:22:16;1.30;;;0.70;;
51925;SDS011;37952;51.938;15.480;2023-06-04T08:25:19;1.10;;;0.90;;
51925;SDS011;37952;51.938;15.480;2023-06-04T08:28:21;0.90;;;0.80;;
51925;SDS011;37952;51.938;15.480;2023-06-04T08:31:24;0.90;;;0.80;;
51925;SDS011;37952;51.938;15.480;2023-06-04T08:34:27;1.00;;;0.80;;
51925;SDS011;37952;51.938;15.480;2023-06-04T08:37:30;1.20;;;0.50;;
51925;SDS011;37952;51.938;15.480;2023-06-04T08:40:33;0.90;;;0.70;;
51925;SDS011;37952;51.938;15.480;2023-06-04T08:43:37;0.60;;;0.60;;
51925;SDS011;37952;51.938;15.480;2023-06-04T08:46:42;0.70;;;0.70;;
51925;SDS011;37952;51.938;15.480;2023-06-04T08:53:29;0.60;;;0.50;;
51925;SDS011;37952;51.938;15.480;2023-06-04T08:57:06;1.70;;;0.60;;
51925;SDS011;37952;51.938;15.480;2023-06-04T09:00:09;0.70;;;0.70;;
51925;SDS011;37952;51.938;15.480;2023-06-04T09:03:12;0.60;;;0.50;;
51925;SDS011;37952;51.938;15.480;2023-06-04T09:06:17;0.60;;;0.60;;
51925;SDS011;37952;51.938;15.480;2023-06-04T09:09:20;1.60;;;0.50;;
51925;SDS011;37952;51.938;15.480;2023-06-04T09:12:27;0.60;;;0.50;;
51925;SDS011;37952;51.938;15.480;2023-06-04T09:15:30;0.80;;;0.80;;
51925;SDS011;37952;51.938;15.480;2023-06-04T09:18:32;1.50;;;0.60;;
51925;SDS011;37952;51.938;15.480;2023-06-04T09:24:54;0.60;;;0.60;;
51925;SDS011;37952;51.938;15.480;2023-06-04T09:28:05;3.00;;;0.50;;
51925;SDS011;37952;51.938;15.480;2023-06-04T09:31:15;3.60;;;0.70;;
51925;SDS011;37952;51.938;15.480;2023-06-04T09:34:26;1.10;;;0.60;;
51925;SDS011;37952;51.938;15.480;2023-06-04T09:37:30;0.50;;;0.50;;
51925;SDS011;37952;51.938;15.480;2023-06-04T09:48:21;0.50;;;0.50;;
51925;SDS011;37952;51.938;15.480;2023-06-04T09:51:24;0.80;;;0.60;;
51925;SDS011;37952;51.938;15.480;2023-06-04T10:01:57;0.70;;;0.70;;
51925;SDS011;37952;51.938;15.480;2023-06-04T10:05:02;1.00;;;0.60;;
51925;SDS011;37952;51.938;15.480;2023-06-04T10:08:06;0.60;;;0.40;;
51925;SDS011;37952;51.938;15.480;2023-06-04T10:11:12;0.60;;;0.50;;
51925;SDS011;37952;51.938;15.480;2023-06-04T10:14:22;0.50;;;0.40;;
51925;SDS011;37952;51.938;15.480;2023-06-04T10:26:26;0.40;;;0.40;;
51925;SDS011;37952;51.938;15.480;2023-06-04T10:29:30;0.80;;;0.60;;
51925;SDS011;37952;51.938;15.480;2023-06-04T10:32:45;0.70;;;0.50;;
51925;SDS011;37952;51.938;15.480;2023-06-04T10:35:55;1.00;;;0.70;;
51925;SDS011;37952;51.938;15.480;2023-06-04T10:39:00;0.60;;;0.60;;
51925;SDS011;37952;51.938;15.480;2023-06-04T10:42:04;1.00;;;0.80;;
51925;SDS011;37952;51.938;15.480;2023-06-04T10:48:59;1.90;;;0.40;;
51925;SDS011;37952;51.938;15.480;2023-06-04T10:52:09;1.20;;;0.60;;
51925;SDS011;37952;51.938;15.480;2023-06-04T10:55:15;0.50;;;0.50;;
51925;SDS011;37952;51.938;15.480;2023-06-04T10:58:18;0.50;;;0.50;;
51925;SDS011;37952;51.938;15.480;2023-06-04T11:01:26;0.60;;;0.50;;
51925;SDS011;37952;51.938;15.480;2023-06-04T11:04:33;2.70;;;0.60;;
51925;SDS011;37952;51.938;15.480;2023-06-04T11:07:47;0.70;;;0.60;;
51925;SDS011;37952;51.938;15.480;2023-06-04T11:10:51;2.20;;;0.50;;
51925;SDS011;37952;51.938;15.480;2023-06-04T11:13:54;0.50;;;0.50;;
51925;SDS011;37952;51.938;15.480;2023-06-04T11:16:57;0.70;;;0.50;;
51925;SDS011;37952;51.938;15.480;2023-06-04T11:19:59;0.50;;;0.40;;
51925;SDS011;37952;51.938;15.480;2023-06-04T11:23:02;4.00;;;0.70;;
51925;SDS011;37952;51.938;15.480;2023-06-04T11:26:06;0.60;;;0.50;;
51925;SDS011;37952;51.938;15.480;2023-06-04T11:29:11;0.60;;;0.60;;
51925;SDS011;37952;51.938;15.480;2023-06-04T11:36:01;3.80;;;0.60;;
51925;SDS011;37952;51.938;15.480;2023-06-04T11:39:04;0.70;;;0.60;;
51925;SDS011;37952;51.938;15.480;2023-06-04T11:42:09;0.60;;;0.60;;
51925;SDS011;37952;51.938;15.480;2023-06-04T11:48:37;1.20;;;0.60;;
51925;SDS011;37952;51.938;15.480;2023-06-04T11:51:47;2.30;;;0.60;;
51925;SDS011;37952;51.938;15.480;2023-06-04T12:02:31;0.90;;;0.60;;
51925;SDS011;37952;51.938;15.480;2023-06-04T12:05:34;1.00;;;0.40;;
51925;SDS011;37952;51.938;15.480;2023-06-04T12:15:54;0.60;;;0.60;;
51925;SDS011;37952;51.938;15.480;2023-06-04T12:19:06;0.70;;;0.60;;
51925;SDS011;37952;51.938;15.480;2023-06-04T12:26:01;1.70;;;0.60;;
51925;SDS011;37952;51.938;15.480;2023-06-04T12:29:15;0.70;;;0.70;;
51925;SDS011;37952;51.938;15.480;2023-06-04T12:32:20;0.70;;;0.70;;
51925;SDS011;37952;51.938;15.480;2023-06-04T12:35:23;2.10;;;0.60;;
51925;SDS011;37952;51.938;15.480;2023-06-04T12:38:26;0.80;;;0.80;;
51925;SDS011;37952;51.938;15.480;2023-06-04T12:41:29;1.40;;;0.90;;
51925;SDS011;37952;51.938;15.480;2023-06-04T12:44:32;1.50;;;0.60;;
51925;SDS011;37952;51.938;15.480;2023-06-04T12:47:37;0.60;;;0.60;;
51925;SDS011;37952;51.938;15.480;2023-06-04T12:50:40;0.90;;;0.60;;
51925;SDS011;37952;51.938;15.480;2023-06-04T12:53:43;0.70;;;0.50;;
51925;SDS011;37952;51.938;15.480;2023-06-04T12:56:47;1.00;;;0.60;;
51925;SDS011;37952;51.938;15.480;2023-06-04T12:59:50;0.80;;;0.50;;
51925;SDS011;37952;51.938;15.480;2023-06-04T13:02:53;0.80;;;0.60;;
51925;SDS011;37952;51.938;15.480;2023-06-04T13:09:11;1.60;;;0.70;;
51925;SDS011;37952;51.938;15.480;2023-06-04T13:12:14;0.60;;;0.50;;
51925;SDS011;37952;51.938;15.480;2023-06-04T13:15:17;5.60;;;0.70;;
51925;SDS011;37952;51.938;15.480;2023-06-04T13:18:20;1.50;;;0.80;;
51925;SDS011;37952;51.938;15.480;2023-06-04T13:21:23;0.60;;;0.50;;
51925;SDS011;37952;51.938;15.480;2023-06-04T13:24:26;1.00;;;0.70;;
51925;SDS011;37952;51.938;15.480;2023-06-04T13:27:29;0.70;;;0.50;;
51925;SDS011;37952;51.938;15.480;2023-06-04T13:30:32;1.10;;;0.50;;
51925;SDS011;37952;51.938;15.480;2023-06-04T13:33:34;0.40;;;0.40;;
51925;SDS011;37952;51.938;15.480;2023-06-04T13:36:38;0.40;;;0.40;;
51925;SDS011;37952;51.938;15.480;2023-06-04T13:43:10;3.90;;;0.50;;
51925;SDS011;37952;51.938;15.480;2023-06-04T13:46:13;0.60;;;0.60;;
51925;SDS011;37952;51.938;15.480;2023-06-04T13:49:16;0.50;;;0.50;;
51925;SDS011;37952;51.938;15.480;2023-06-04T13:52:19;0.70;;;0.60;;
51925;SDS011;37952;51.938;15.480;2023-06-04T13:59:15;0.90;;;0.70;;
51925;SDS011;37952;51.938;15.480;2023-06-04T14:02:18;0.70;;;0.70;;
51925;SDS011;37952;51.938;15.480;2023-06-04T14:05:21;0.70;;;0.50;;
51925;SDS011;37952;51.938;15.480;2023-06-04T14:08:24;2.00;;;0.50;;
51925;SDS011;37952;51.938;15.480;2023-06-04T14:14:57;0.30;;;0.30;;
51925;SDS011;37952;51.938;15.480;2023-06-04T14:21:37;1.50;;;1.40;;
51925;SDS011;37952;51.938;15.480;2023-06-04T14:24:40;0.50;;;0.50;;
51925;SDS011;37952;51.938;15.480;2023-06-04T14:27:43;0.50;;;0.50;;
51925;SDS011;37952;51.938;15.480;2023-06-04T14:30:46;0.60;;;0.60;;
51925;SDS011;37952;51.938;15.480;2023-06-04T14:33:49;1.10;;;0.40;;
51925;SDS011;37952;51.938;15.480;2023-06-04T14:36:52;0.50;;;0.50;;
51925;SDS011;37952;51.938;15.480;2023-06-04T14:43:11;1.30;;;0.50;;
51925;SDS011;37952;51.938;15.480;2023-06-04T14:46:14;2.40;;;0.70;;
51925;SDS011;37952;51.938;15.480;2023-06-04T14:49:22;2.60;;;0.50;;
51925;SDS011;37952;51.938;15.480;2023-06-04T14:52:25;0.60;;;0.50;;
51925;SDS011;37952;51.938;15.480;2023-06-04T14:55:28;4.80;;;0.60;;
51925;SDS011;37952;51.938;15.480;2023-06-04T14:58:30;0.70;;;0.70;;
51925;SDS011;37952;51.938;15.480;2023-06-04T15:01:37;2.80;;;0.50;;
51925;SDS011;37952;51.938;15.480;2023-06-04T15:04:43;1.20;;;1.10;;
51925;SDS011;37952;51.938;15.480;2023-06-04T15:07:47;0.70;;;0.70;;
51925;SDS011;37952;51.938;15.480;2023-06-04T15:10:50;0.60;;;0.60;;
51925;SDS011;37952;51.938;15.480;2023-06-04T15:13:53;0.90;;;0.80;;
51925;SDS011;37952;51.938;15.480;2023-06-04T15:20:08;0.90;;;0.60;;
51925;SDS011;37952;51.938;15.480;2023-06-04T15:23:12;0.50;;;0.50;;
51925;SDS011;37952;51.938;15.480;2023-06-04T15:26:15;1.00;;;0.60;;
51925;SDS011;37952;51.938;15.480;2023-06-04T15:29:19;0.70;;;0.70;;
51925;SDS011;37952;51.938;15.480;2023-06-04T15:32:21;0.80;;;0.80;;
51925;SDS011;37952;51.938;15.480;2023-06-04T15:35:24;1.70;;;0.60;;
51925;SDS011;37952;51.938;15.480;2023-06-04T15:38:27;0.40;;;0.40;;
51925;SDS011;37952;51.938;15.480;2023-06-04T15:41:33;2.60;;;0.50;;
51925;SDS011;37952;51.938;15.480;2023-06-04T15:44:35;0.60;;;0.60;;
51925;SDS011;37952;51.938;15.480;2023-06-04T15:47:38;1.40;;;0.80;;
51925;SDS011;37952;51.938;15.480;2023-06-04T15:50:41;1.60;;;0.80;;
51925;SDS011;37952;51.938;15.480;2023-06-04T15:53:44;0.50;;;0.50;;
51925;SDS011;37952;51.938;15.480;2023-06-04T16:00:00;0.40;;;0.40;;
51925;SDS011;37952;51.938;15.480;2023-06-04T16:03:03;3.60;;;0.40;;
51925;SDS011;37952;51.938;15.480;2023-06-04T16:06:06;2.40;;;0.60;;
51925;SDS011;37952;51.938;15.480;2023-06-04T16:09:09;1.40;;;0.60;;
51925;SDS011;37952;51.938;15.480;2023-06-04T16:12:12;1.10;;;0.80;;
51925;SDS011;37952;51.938;15.480;2023-06-04T16:15:15;1.00;;;0.50;;
51925;SDS011;37952;51.938;15.480;2023-06-04T16:18:26;0.90;;;0.50;;
51925;SDS011;37952;51.938;15.480;2023-06-04T16:21:29;0.60;;;0.60;;
51925;SDS011;37952;51.938;15.480;2023-06-04T16:24:32;0.70;;;0.70;;
51925;SDS011;37952;51.938;15.480;2023-06-04T16:27:35;0.50;;;0.50;;
51925;SDS011;37952;51.938;15.480;2023-06-04T16:30:38;0.50;;;0.50;;
51925;SDS011;37952;51.938;15.480;2023-06-04T16:33:41;2.00;;;0.80;;
51925;SDS011;37952;51.938;15.480;2023-06-04T16:39:58;0.80;;;0.60;;
51925;SDS011;37952;51.938;15.480;2023-06-04T16:43:01;0.70;;;0.70;;
51925;SDS011;37952;51.938;15.480;2023-06-04T16:46:03;1.00;;;0.90;;
51925;SDS011;37952;51.938;15.480;2023-06-04T16:49:07;1.20;;;1.00;;
51925;SDS011;37952;51.938;15.480;2023-06-04T16:55:39;4.90;;;0.70;;
51925;SDS011;37952;51.938;15.480;2023-06-04T16:58:42;3.50;;;0.90;;
51925;SDS011;37952;51.938;15.480;2023-06-04T17:01:47;0.80;;;0.80;;
51925;SDS011;37952;51.938;15.480;2023-06-04T17:04:49;0.60;;;0.60;;
51925;SDS011;37952;51.938;15.480;2023-06-04T17:07:53;4.30;;;0.70;;
51925;SDS011;37952;51.938;15.480;2023-06-04T17:10:56;0.60;;;0.60;;
51925;SDS011;37952;51.938;15.480;2023-06-04T17:13:59;0.60;;;0.60;;
51925;SDS011;37952;51.938;15.480;2023-06-04T17:17:02;1.20;;;0.80;;
51925;SDS011;37952;51.938;15.480;2023-06-04T17:20:06;0.80;;;0.70;;
51925;SDS011;37952;51.938;15.480;2023-06-04T17:23:20;4.40;;;0.80;;
51925;SDS011;37952;51.938;15.480;2023-06-04T17:26:26;1.30;;;0.60;;
51925;SDS011;37952;51.938;15.480;2023-06-04T17:29:32;0.70;;;0.70;;
51925;SDS011;37952;51.938;15.480;2023-06-04T17:32:36;0.80;;;0.80;;
51925;SDS011;37952;51.938;15.480;2023-06-04T17:35:40;1.00;;;0.70;;
51925;SDS011;37952;51.938;15.480;2023-06-04T17:38:44;1.20;;;0.60;;
51925;SDS011;37952;51.938;15.480;2023-06-04T17:41:47;2.10;;;1.20;;
51925;SDS011;37952;51.938;15.480;2023-06-04T17:44:50;0.60;;;0.50;;
51925;SDS011;37952;51.938;15.480;2023-06-04T17:47:53;0.60;;;0.50;;
51925;SDS011;37952;51.938;15.480;2023-06-04T17:50:56;1.30;;;1.20;;
51925;SDS011;37952;51.938;15.480;2023-06-04T17:53:59;2.30;;;0.90;;
51925;SDS011;37952;51.938;15.480;2023-06-04T17:57:02;1.00;;;0.90;;
51925;SDS011;37952;51.938;15.480;2023-06-04T18:00:06;1.10;;;0.60;;
51925;SDS011;37952;51.938;15.480;2023-06-04T18:03:10;1.30;;;1.00;;
51925;SDS011;37952;51.938;15.480;2023-06-04T18:06:16;3.00;;;0.70;;
51925;SDS011;37952;51.938;15.480;2023-06-04T18:09:18;1.20;;;0.70;;
51925;SDS011;37952;51.938;15.480;2023-06-04T18:12:22;1.70;;;0.60;;
51925;SDS011;37952;51.938;15.480;2023-06-04T18:15:25;1.70;;;0.60;;
51925;SDS011;37952;51.938;15.480;2023-06-04T18:18:27;2.20;;;0.80;;
51925;SDS011;37952;51.938;15.480;2023-06-04T18:21:31;2.20;;;0.90;;
51925;SDS011;37952;51.938;15.480;2023-06-04T18:24:33;0.90;;;0.90;;
51925;SDS011;37952;51.938;15.480;2023-06-04T18:27:40;1.10;;;0.60;;
51925;SDS011;37952;51.938;15.480;2023-06-04T18:30:43;0.90;;;0.90;;
51925;SDS011;37952;51.938;15.480;2023-06-04T18:33:52;0.80;;;0.80;;
51925;SDS011;37952;51.938;15.480;2023-06-04T18:36:56;2.70;;;0.70;;
51925;SDS011;37952;51.938;15.480;2023-06-04T18:40:00;1.50;;;0.90;;
51925;SDS011;37952;51.938;15.480;2023-06-04T18:43:03;0.90;;;0.90;;
51925;SDS011;37952;51.938;15.480;2023-06-04T18:46:06;0.80;;;0.70;;
51925;SDS011;37952;51.938;15.480;2023-06-04T18:49:10;3.10;;;3.00;;
51925;SDS011;37952;51.938;15.480;2023-06-04T18:52:13;4.10;;;2.90;;
51925;SDS011;37952;51.938;15.480;2023-06-04T18:55:17;2.40;;;1.40;;
51925;SDS011;37952;51.938;15.480;2023-06-04T18:58:20;2.00;;;1.00;;
51925;SDS011;37952;51.938;15.480;2023-06-04T19:01:25;2.00;;;1.20;;
51925;SDS011;37952;51.938;15.480;2023-06-04T19:04:28;2.20;;;1.30;;
51925;SDS011;37952;51.938;15.480;2023-06-04T19:07:31;2.40;;;1.00;;
51925;SDS011;37952;51.938;15.480;2023-06-04T19:10:35;3.90;;;1.20;;
51925;SDS011;37952;51.938;15.480;2023-06-04T19:13:37;2.30;;;1.40;;
51925;SDS011;37952;51.938;15.480;2023-06-04T19:16:40;3.30;;;1.10;;
51925;SDS011;37952;51.938;15.480;2023-06-04T19:19:49;1.10;;;0.90;;
51925;SDS011;37952;51.938;15.480;2023-06-04T19:22:54;1.10;;;1.00;;
51925;SDS011;37952;51.938;15.480;2023-06-04T19:25:57;3.60;;;0.90;;
51925;SDS011;37952;51.938;15.480;2023-06-04T19:29:01;2.80;;;0.80;;
51925;SDS011;37952;51.938;15.480;2023-06-04T19:32:03;1.40;;;0.80;;
51925;SDS011;37952;51.938;15.480;2023-06-04T19:35:06;4.70;;;1.10;;
51925;SDS011;37952;51.938;15.480;2023-06-04T19:38:09;1.40;;;0.80;;
51925;SDS011;37952;51.938;15.480;2023-06-04T19:41:13;4.00;;;1.20;;
51925;SDS011;37952;51.938;15.480;2023-06-04T19:44:17;1.50;;;1.10;;
51925;SDS011;37952;51.938;15.480;2023-06-04T19:47:19;1.80;;;1.20;;
51925;SDS011;37952;51.938;15.480;2023-06-04T19:50:22;3.40;;;0.80;;
51925;SDS011;37952;51.938;15.480;2023-06-04T19:53:25;1.10;;;1.00;;
51925;SDS011;37952;51.938;15.480;2023-06-04T19:56:29;3.60;;;0.80;;
51925;SDS011;37952;51.938;15.480;2023-06-04T19:59:32;2.30;;;0.90;;
51925;SDS011;37952;51.938;15.480;2023-06-04T20:02:36;2.60;;;1.10;;
51925;SDS011;37952;51.938;15.480;2023-06-04T20:05:40;1.70;;;0.90;;
51925;SDS011;37952;51.938;15.480;2023-06-04T20:08:43;2.80;;;0.70;;
51925;SDS011;37952;51.938;15.480;2023-06-04T20:11:46;1.00;;;0.90;;
51925;SDS011;37952;51.938;15.480;2023-06-04T20:14:49;0.90;;;0.70;;
51925;SDS011;37952;51.938;15.480;2023-06-04T20:17:52;1.10;;;1.00;;
51925;SDS011;37952;51.938;15.480;2023-06-04T20:20:55;1.20;;;0.90;;
51925;SDS011;37952;51.938;15.480;2023-06-04T20:23:58;1.20;;;0.80;;
51925;SDS011;37952;51.938;15.480;2023-06-04T20:27:01;0.70;;;0.70;;
51925;SDS011;37952;51.938;15.480;2023-06-04T20:30:04;2.20;;;1.00;;
51925;SDS011;37952;51.938;15.480;2023-06-04T20:33:07;3.60;;;1.00;;
51925;SDS011;37952;51.938;15.480;2023-06-04T20:36:10;1.30;;;0.80;;
51925;SDS011;37952;51.938;15.480;2023-06-04T20:39:13;3.60;;;0.70;;
51925;SDS011;37952;51.938;15.480;2023-06-04T20:42:18;4.70;;;1.10;;
51925;SDS011;37952;51.938;15.480;2023-06-04T20:45:21;0.70;;;0.60;;
51925;SDS011;37952;51.938;15.480;2023-06-04T20:48:25;1.80;;;0.80;;
51925;SDS011;37952;51.938;15.480;2023-06-04T20:51:28;4.80;;;0.70;;
51925;SDS011;37952;51.938;15.480;2023-06-04T20:54:31;5.10;;;0.70;;
51925;SDS011;37952;51.938;15.480;2023-06-04T20:57:34;4.20;;;1.00;;
51925;SDS011;37952;51.938;15.480;2023-06-04T21:00:36;2.10;;;1.10;;
51925;SDS011;37952;51.938;15.480;2023-06-04T21:03:39;0.80;;;0.80;;
51925;SDS011;37952;51.938;15.480;2023-06-04T21:06:43;1.00;;;0.80;;
51925;SDS011;37952;51.938;15.480;2023-06-04T21:09:45;0.80;;;0.80;;
51925;SDS011;37952;51.938;15.480;2023-06-04T21:12:48;0.80;;;0.80;;